sensor_id;sensor_type;location;lat;lon;timestamp;P1;durP1;ratioP1;P2;durP2;ratioP2
23470;SDS011;11908;50.806;4.424;2022-11-20T00:00:23;75.70;;;37.63;;
23470;SDS011;11908;50.806;4.424;2022-11-20T00:02:49;66.80;;;36.55;;
23470;SDS011;11908;50.806;4.424;2022-11-20T00:05:15;63.05;;;36.17;;
23470;SDS011;11908;50.806;4.424;2022-11-20T00:07:40;72.13;;;35.53;;
23470;SDS011;11908;50.806;4.424;2022-11-20T00:10:06;68.72;;;37.88;;
23470;SDS011;11908;50.806;4.424;2022-11-20T00:12:32;64.50;;;36.13;;
23470;SDS011;11908;50.806;4.424;2022-11-20T00:14:58;63.08;;;37.03;;
23470;SDS011;11908;50.806;4.424;2022-11-20T00:17:23;62.28;;;36.17;;
23470;SDS011;11908;50.806;4.424;2022-11-20T00:19:49;62.70;;;35.53;;
23470;SDS011;11908;50.806;4.424;2022-11-20T00:22:15;65.03;;;36.22;;
23470;SDS011;11908;50.806;4.424;2022-11-20T00:24:40;61.63;;;34.90;;
23470;SDS011;11908;50.806;4.424;2022-11-20T00:27:06;58.90;;;33.88;;
23470;SDS011;11908;50.806;4.424;2022-11-20T00:29:32;66.10;;;36.38;;
23470;SDS011;11908;50.806;4.424;2022-11-20T00:31:57;66.07;;;35.75;;
23470;SDS011;11908;50.806;4.424;2022-11-20T00:34:23;58.95;;;33.65;;
23470;SDS011;11908;50.806;4.424;2022-11-20T00:36:49;58.13;;;34.13;;
23470;SDS011;11908;50.806;4.424;2022-11-20T00:39:14;64.65;;;34.35;;
23470;SDS011;11908;50.806;4.424;2022-11-20T00:41:40;59.88;;;33.67;;
23470;SDS011;11908;50.806;4.424;2022-11-20T00:44:06;61.00;;;33.75;;
23470;SDS011;11908;50.806;4.424;2022-11-20T00:46:31;66.93;;;35.35;;
23470;SDS011;11908;50.806;4.424;2022-11-20T00:48:57;59.80;;;34.10;;
23470;SDS011;11908;50.806;4.424;2022-11-20T00:51:23;56.80;;;32.97;;
23470;SDS011;11908;50.806;4.424;2022-11-20T00:53:50;60.08;;;33.10;;
23470;SDS011;11908;50.806;4.424;2022-11-20T00:56:17;55.95;;;34.38;;
23470;SDS011;11908;50.806;4.424;2022-11-20T00:58:44;54.63;;;33.20;;
23470;SDS011;11908;50.806;4.424;2022-11-20T01:01:13;59.10;;;33.95;;
23470;SDS011;11908;50.806;4.424;2022-11-20T01:03:40;59.13;;;34.53;;
23470;SDS011;11908;50.806;4.424;2022-11-20T01:06:12;56.22;;;32.17;;
23470;SDS011;11908;50.806;4.424;2022-11-20T01:08:44;56.85;;;32.45;;
23470;SDS011;11908;50.806;4.424;2022-11-20T01:11:12;54.83;;;32.72;;
23470;SDS011;11908;50.806;4.424;2022-11-20T01:13:43;66.60;;;34.28;;
23470;SDS011;11908;50.806;4.424;2022-11-20T01:16:14;61.60;;;34.35;;
23470;SDS011;11908;50.806;4.424;2022-11-20T01:18:46;57.47;;;34.55;;
23470;SDS011;11908;50.806;4.424;2022-11-20T01:21:15;56.53;;;33.13;;
23470;SDS011;11908;50.806;4.424;2022-11-20T01:23:43;51.78;;;31.95;;
23470;SDS011;11908;50.806;4.424;2022-11-20T01:26:11;59.47;;;33.80;;
23470;SDS011;11908;50.806;4.424;2022-11-20T01:28:41;55.35;;;33.85;;
23470;SDS011;11908;50.806;4.424;2022-11-20T01:31:39;62.03;;;34.15;;
23470;SDS011;11908;50.806;4.424;2022-11-20T01:34:01;60.65;;;35.08;;
23470;SDS011;11908;50.806;4.424;2022-11-20T01:36:31;54.97;;;33.78;;
23470;SDS011;11908;50.806;4.424;2022-11-20T01:38:59;60.95;;;33.28;;
23470;SDS011;11908;50.806;4.424;2022-11-20T01:41:27;58.95;;;33.53;;
23470;SDS011;11908;50.806;4.424;2022-11-20T01:44:13;56.85;;;33.78;;
23470;SDS011;11908;50.806;4.424;2022-11-20T01:46:42;53.50;;;31.98;;
23470;SDS011;11908;50.806;4.424;2022-11-20T01:49:40;56.45;;;32.25;;
23470;SDS011;11908;50.806;4.424;2022-11-20T01:52:16;61.75;;;33.22;;
23470;SDS011;11908;50.806;4.424;2022-11-20T01:54:49;59.75;;;34.55;;
23470;SDS011;11908;50.806;4.424;2022-11-20T01:57:29;60.63;;;33.40;;
23470;SDS011;11908;50.806;4.424;2022-11-20T02:00:00;55.63;;;32.40;;
23470;SDS011;11908;50.806;4.424;2022-11-20T02:02:29;68.30;;;34.47;;
23470;SDS011;11908;50.806;4.424;2022-11-20T02:04:56;59.55;;;33.67;;
23470;SDS011;11908;50.806;4.424;2022-11-20T02:07:28;62.13;;;34.25;;
23470;SDS011;11908;50.806;4.424;2022-11-20T02:09:54;65.57;;;34.00;;
23470;SDS011;11908;50.806;4.424;2022-11-20T02:12:19;57.42;;;33.15;;
23470;SDS011;11908;50.806;4.424;2022-11-20T02:15:03;55.45;;;32.55;;
23470;SDS011;11908;50.806;4.424;2022-11-20T02:17:29;58.88;;;33.50;;
23470;SDS011;11908;50.806;4.424;2022-11-20T02:19:55;64.28;;;34.88;;
23470;SDS011;11908;50.806;4.424;2022-11-20T02:22:23;65.85;;;35.10;;
23470;SDS011;11908;50.806;4.424;2022-11-20T02:24:59;64.47;;;33.75;;
23470;SDS011;11908;50.806;4.424;2022-11-20T02:27:27;61.90;;;34.80;;
23470;SDS011;11908;50.806;4.424;2022-11-20T02:29:57;60.53;;;35.42;;
23470;SDS011;11908;50.806;4.424;2022-11-20T02:32:28;60.42;;;33.25;;
23470;SDS011;11908;50.806;4.424;2022-11-20T02:34:55;64.80;;;33.55;;
23470;SDS011;11908;50.806;4.424;2022-11-20T02:37:21;60.60;;;34.50;;
23470;SDS011;11908;50.806;4.424;2022-11-20T02:39:49;57.50;;;33.50;;
23470;SDS011;11908;50.806;4.424;2022-11-20T02:42:16;62.22;;;33.70;;
23470;SDS011;11908;50.806;4.424;2022-11-20T02:44:42;65.25;;;33.60;;
23470;SDS011;11908;50.806;4.424;2022-11-20T02:47:07;62.95;;;34.25;;
23470;SDS011;11908;50.806;4.424;2022-11-20T02:49:33;62.40;;;33.53;;
23470;SDS011;11908;50.806;4.424;2022-11-20T02:51:59;60.70;;;32.42;;
23470;SDS011;11908;50.806;4.424;2022-11-20T02:54:25;56.13;;;30.70;;
23470;SDS011;11908;50.806;4.424;2022-11-20T02:56:50;60.00;;;31.50;;
23470;SDS011;11908;50.806;4.424;2022-11-20T02:59:16;50.75;;;29.23;;
23470;SDS011;11908;50.806;4.424;2022-11-20T03:01:42;59.10;;;31.65;;
23470;SDS011;11908;50.806;4.424;2022-11-20T03:04:08;56.15;;;29.08;;
23470;SDS011;11908;50.806;4.424;2022-11-20T03:06:33;55.47;;;29.08;;
23470;SDS011;11908;50.806;4.424;2022-11-20T03:08:59;53.05;;;29.63;;
23470;SDS011;11908;50.806;4.424;2022-11-20T03:11:25;54.50;;;27.65;;
23470;SDS011;11908;50.806;4.424;2022-11-20T03:13:50;50.92;;;28.20;;
23470;SDS011;11908;50.806;4.424;2022-11-20T03:16:17;52.72;;;27.67;;
23470;SDS011;11908;50.806;4.424;2022-11-20T03:18:45;46.63;;;26.77;;
23470;SDS011;11908;50.806;4.424;2022-11-20T03:21:11;50.47;;;27.50;;
23470;SDS011;11908;50.806;4.424;2022-11-20T03:23:38;57.00;;;28.85;;
23470;SDS011;11908;50.806;4.424;2022-11-20T03:26:08;44.45;;;27.77;;
23470;SDS011;11908;50.806;4.424;2022-11-20T03:28:35;47.63;;;26.42;;
23470;SDS011;11908;50.806;4.424;2022-11-20T03:31:07;49.10;;;27.50;;
23470;SDS011;11908;50.806;4.424;2022-11-20T03:33:38;51.35;;;27.52;;
23470;SDS011;11908;50.806;4.424;2022-11-20T03:36:05;51.40;;;27.83;;
23470;SDS011;11908;50.806;4.424;2022-11-20T03:38:32;52.00;;;27.88;;
23470;SDS011;11908;50.806;4.424;2022-11-20T03:40:59;47.00;;;25.70;;
23470;SDS011;11908;50.806;4.424;2022-11-20T03:43:29;51.60;;;27.63;;
23470;SDS011;11908;50.806;4.424;2022-11-20T03:45:55;53.22;;;27.40;;
23470;SDS011;11908;50.806;4.424;2022-11-20T03:48:21;52.45;;;26.80;;
23470;SDS011;11908;50.806;4.424;2022-11-20T03:50:46;50.05;;;27.30;;
23470;SDS011;11908;50.806;4.424;2022-11-20T03:53:13;48.03;;;26.55;;
23470;SDS011;11908;50.806;4.424;2022-11-20T03:55:39;49.08;;;27.60;;
23470;SDS011;11908;50.806;4.424;2022-11-20T03:58:05;51.08;;;27.33;;
23470;SDS011;11908;50.806;4.424;2022-11-20T04:00:31;51.92;;;25.48;;
23470;SDS011;11908;50.806;4.424;2022-11-20T04:03:00;56.10;;;27.33;;
23470;SDS011;11908;50.806;4.424;2022-11-20T04:05:27;48.40;;;26.77;;
23470;SDS011;11908;50.806;4.424;2022-11-20T04:07:52;48.45;;;27.08;;
23470;SDS011;11908;50.806;4.424;2022-11-20T04:10:18;53.80;;;27.52;;
23470;SDS011;11908;50.806;4.424;2022-11-20T04:12:44;52.88;;;27.65;;
23470;SDS011;11908;50.806;4.424;2022-11-20T04:15:10;55.28;;;29.08;;
23470;SDS011;11908;50.806;4.424;2022-11-20T04:17:36;52.80;;;28.65;;
23470;SDS011;11908;50.806;4.424;2022-11-20T04:20:02;56.08;;;28.48;;
23470;SDS011;11908;50.806;4.424;2022-11-20T04:22:28;51.58;;;28.50;;
23470;SDS011;11908;50.806;4.424;2022-11-20T04:24:54;53.25;;;28.23;;
23470;SDS011;11908;50.806;4.424;2022-11-20T04:27:19;48.17;;;27.35;;
23470;SDS011;11908;50.806;4.424;2022-11-20T04:29:45;58.70;;;28.23;;
23470;SDS011;11908;50.806;4.424;2022-11-20T04:32:11;59.35;;;30.05;;
23470;SDS011;11908;50.806;4.424;2022-11-20T04:34:37;52.50;;;28.30;;
23470;SDS011;11908;50.806;4.424;2022-11-20T04:37:02;59.47;;;29.95;;
23470;SDS011;11908;50.806;4.424;2022-11-20T04:39:28;54.03;;;27.25;;
23470;SDS011;11908;50.806;4.424;2022-11-20T04:41:54;62.55;;;28.75;;
23470;SDS011;11908;50.806;4.424;2022-11-20T04:44:38;56.33;;;30.00;;
23470;SDS011;11908;50.806;4.424;2022-11-20T04:47:04;58.35;;;28.88;;
23470;SDS011;11908;50.806;4.424;2022-11-20T04:49:30;64.95;;;29.42;;
23470;SDS011;11908;50.806;4.424;2022-11-20T04:51:56;61.30;;;30.02;;
23470;SDS011;11908;50.806;4.424;2022-11-20T04:54:22;60.50;;;30.05;;
23470;SDS011;11908;50.806;4.424;2022-11-20T04:56:48;63.83;;;30.55;;
23470;SDS011;11908;50.806;4.424;2022-11-20T04:59:14;68.28;;;32.15;;
23470;SDS011;11908;50.806;4.424;2022-11-20T05:01:40;68.53;;;30.98;;
23470;SDS011;11908;50.806;4.424;2022-11-20T05:04:06;69.25;;;31.38;;
23470;SDS011;11908;50.806;4.424;2022-11-20T05:06:31;61.83;;;30.80;;
23470;SDS011;11908;50.806;4.424;2022-11-20T05:08:58;69.30;;;30.48;;
23470;SDS011;11908;50.806;4.424;2022-11-20T05:11:23;60.78;;;29.33;;
23470;SDS011;11908;50.806;4.424;2022-11-20T05:13:49;65.63;;;30.48;;
23470;SDS011;11908;50.806;4.424;2022-11-20T05:16:17;66.20;;;30.48;;
23470;SDS011;11908;50.806;4.424;2022-11-20T05:18:47;68.35;;;31.05;;
23470;SDS011;11908;50.806;4.424;2022-11-20T05:21:13;62.47;;;29.15;;
23470;SDS011;11908;50.806;4.424;2022-11-20T05:23:39;64.40;;;30.55;;
23470;SDS011;11908;50.806;4.424;2022-11-20T05:26:07;73.53;;;33.30;;
23470;SDS011;11908;50.806;4.424;2022-11-20T05:28:36;69.68;;;33.90;;
23470;SDS011;11908;50.806;4.424;2022-11-20T05:31:06;64.32;;;29.95;;
23470;SDS011;11908;50.806;4.424;2022-11-20T05:33:39;66.50;;;29.60;;
23470;SDS011;11908;50.806;4.424;2022-11-20T05:36:06;68.40;;;31.85;;
23470;SDS011;11908;50.806;4.424;2022-11-20T05:38:33;70.20;;;32.33;;
23470;SDS011;11908;50.806;4.424;2022-11-20T05:41:03;72.25;;;32.17;;
23470;SDS011;11908;50.806;4.424;2022-11-20T05:43:31;69.85;;;30.77;;
23470;SDS011;11908;50.806;4.424;2022-11-20T05:45:58;80.05;;;33.63;;
23470;SDS011;11908;50.806;4.424;2022-11-20T05:48:24;81.43;;;32.58;;
23470;SDS011;11908;50.806;4.424;2022-11-20T05:50:50;85.85;;;33.88;;
23470;SDS011;11908;50.806;4.424;2022-11-20T05:53:15;73.45;;;32.80;;
23470;SDS011;11908;50.806;4.424;2022-11-20T05:55:41;80.05;;;32.08;;
23470;SDS011;11908;50.806;4.424;2022-11-20T05:58:07;84.13;;;32.50;;
23470;SDS011;11908;50.806;4.424;2022-11-20T06:00:32;80.13;;;33.28;;
23470;SDS011;11908;50.806;4.424;2022-11-20T06:02:58;82.22;;;34.63;;
23470;SDS011;11908;50.806;4.424;2022-11-20T06:05:24;87.43;;;34.35;;
23470;SDS011;11908;50.806;4.424;2022-11-20T06:07:49;84.90;;;34.42;;
23470;SDS011;11908;50.806;4.424;2022-11-20T06:10:15;89.85;;;34.70;;
23470;SDS011;11908;50.806;4.424;2022-11-20T06:12:40;81.07;;;34.47;;
23470;SDS011;11908;50.806;4.424;2022-11-20T06:15:06;96.53;;;35.85;;
23470;SDS011;11908;50.806;4.424;2022-11-20T06:17:32;85.78;;;34.65;;
23470;SDS011;11908;50.806;4.424;2022-11-20T06:19:58;88.60;;;35.53;;
23470;SDS011;11908;50.806;4.424;2022-11-20T06:22:23;91.30;;;35.97;;
23470;SDS011;11908;50.806;4.424;2022-11-20T06:24:49;87.45;;;35.03;;
23470;SDS011;11908;50.806;4.424;2022-11-20T06:27:15;85.18;;;34.80;;
23470;SDS011;11908;50.806;4.424;2022-11-20T06:29:41;96.45;;;34.53;;
23470;SDS011;11908;50.806;4.424;2022-11-20T06:32:06;98.10;;;37.00;;
23470;SDS011;11908;50.806;4.424;2022-11-20T06:34:32;91.32;;;37.67;;
23470;SDS011;11908;50.806;4.424;2022-11-20T06:36:58;89.88;;;37.60;;
23470;SDS011;11908;50.806;4.424;2022-11-20T06:39:23;102.35;;;38.03;;
23470;SDS011;11908;50.806;4.424;2022-11-20T06:41:49;92.38;;;35.33;;
23470;SDS011;11908;50.806;4.424;2022-11-20T06:44:15;100.15;;;37.45;;
23470;SDS011;11908;50.806;4.424;2022-11-20T06:46:40;91.88;;;35.72;;
23470;SDS011;11908;50.806;4.424;2022-11-20T06:49:06;101.38;;;36.85;;
23470;SDS011;11908;50.806;4.424;2022-11-20T06:51:32;93.43;;;37.70;;
23470;SDS011;11908;50.806;4.424;2022-11-20T06:53:57;94.45;;;36.13;;
23470;SDS011;11908;50.806;4.424;2022-11-20T06:56:23;101.38;;;37.05;;
23470;SDS011;11908;50.806;4.424;2022-11-20T06:58:48;97.75;;;36.78;;
23470;SDS011;11908;50.806;4.424;2022-11-20T07:01:14;94.32;;;36.25;;
23470;SDS011;11908;50.806;4.424;2022-11-20T07:03:40;96.38;;;36.55;;
23470;SDS011;11908;50.806;4.424;2022-11-20T07:06:06;95.72;;;35.03;;
23470;SDS011;11908;50.806;4.424;2022-11-20T07:08:32;93.95;;;35.70;;
23470;SDS011;11908;50.806;4.424;2022-11-20T07:10:59;90.68;;;36.15;;
23470;SDS011;11908;50.806;4.424;2022-11-20T07:13:26;90.30;;;35.55;;
23470;SDS011;11908;50.806;4.424;2022-11-20T07:15:53;93.10;;;35.90;;
23470;SDS011;11908;50.806;4.424;2022-11-20T07:18:18;81.32;;;35.63;;
23470;SDS011;11908;50.806;4.424;2022-11-20T07:20:44;80.60;;;33.97;;
23470;SDS011;11908;50.806;4.424;2022-11-20T07:23:10;80.80;;;34.10;;
23470;SDS011;11908;50.806;4.424;2022-11-20T07:25:35;81.75;;;33.65;;
23470;SDS011;11908;50.806;4.424;2022-11-20T07:28:04;80.63;;;32.85;;
23470;SDS011;11908;50.806;4.424;2022-11-20T07:30:30;77.30;;;32.63;;
23470;SDS011;11908;50.806;4.424;2022-11-20T07:32:56;83.60;;;35.75;;
23470;SDS011;11908;50.806;4.424;2022-11-20T07:35:22;78.30;;;32.92;;
23470;SDS011;11908;50.806;4.424;2022-11-20T07:37:51;78.60;;;34.65;;
23470;SDS011;11908;50.806;4.424;2022-11-20T07:40:16;82.97;;;33.95;;
23470;SDS011;11908;50.806;4.424;2022-11-20T07:45:15;79.75;;;32.95;;
23470;SDS011;11908;50.806;4.424;2022-11-20T07:47:40;77.15;;;34.20;;
23470;SDS011;11908;50.806;4.424;2022-11-20T07:50:06;73.60;;;32.92;;
23470;SDS011;11908;50.806;4.424;2022-11-20T07:52:32;75.13;;;33.33;;
23470;SDS011;11908;50.806;4.424;2022-11-20T07:54:58;80.97;;;32.50;;
23470;SDS011;11908;50.806;4.424;2022-11-20T07:57:23;78.13;;;30.95;;
23470;SDS011;11908;50.806;4.424;2022-11-20T07:59:49;85.00;;;33.92;;
23470;SDS011;11908;50.806;4.424;2022-11-20T08:02:15;80.65;;;31.15;;
23470;SDS011;11908;50.806;4.424;2022-11-20T08:04:40;80.85;;;32.25;;
23470;SDS011;11908;50.806;4.424;2022-11-20T08:07:06;77.38;;;31.95;;
23470;SDS011;11908;50.806;4.424;2022-11-20T08:09:31;83.43;;;32.35;;
23470;SDS011;11908;50.806;4.424;2022-11-20T08:11:57;75.22;;;31.95;;
23470;SDS011;11908;50.806;4.424;2022-11-20T08:14:41;80.68;;;32.72;;
23470;SDS011;11908;50.806;4.424;2022-11-20T08:17:07;77.80;;;31.85;;
23470;SDS011;11908;50.806;4.424;2022-11-20T08:19:32;76.20;;;30.52;;
23470;SDS011;11908;50.806;4.424;2022-11-20T08:21:58;77.97;;;32.35;;
23470;SDS011;11908;50.806;4.424;2022-11-20T08:24:24;81.93;;;32.33;;
23470;SDS011;11908;50.806;4.424;2022-11-20T08:26:51;82.40;;;31.73;;
23470;SDS011;11908;50.806;4.424;2022-11-20T08:29:17;81.78;;;30.10;;
23470;SDS011;11908;50.806;4.424;2022-11-20T08:31:43;72.43;;;29.33;;
23470;SDS011;11908;50.806;4.424;2022-11-20T08:34:09;73.03;;;30.65;;
23470;SDS011;11908;50.806;4.424;2022-11-20T08:36:34;67.45;;;30.77;;
23470;SDS011;11908;50.806;4.424;2022-11-20T08:39:01;84.85;;;35.67;;
23470;SDS011;11908;50.806;4.424;2022-11-20T08:41:27;70.43;;;31.25;;
23470;SDS011;11908;50.806;4.424;2022-11-20T08:46:24;70.38;;;29.90;;
23470;SDS011;11908;50.806;4.424;2022-11-20T08:48:51;71.75;;;29.67;;
23470;SDS011;11908;50.806;4.424;2022-11-20T08:51:17;75.88;;;30.75;;
23470;SDS011;11908;50.806;4.424;2022-11-20T08:53:43;69.80;;;30.73;;
23470;SDS011;11908;50.806;4.424;2022-11-20T08:56:09;74.28;;;30.08;;
23470;SDS011;11908;50.806;4.424;2022-11-20T08:58:36;68.45;;;29.95;;
23470;SDS011;11908;50.806;4.424;2022-11-20T09:01:03;64.00;;;29.08;;
23470;SDS011;11908;50.806;4.424;2022-11-20T09:03:28;67.18;;;29.45;;
23470;SDS011;11908;50.806;4.424;2022-11-20T09:05:58;61.95;;;28.90;;
23470;SDS011;11908;50.806;4.424;2022-11-20T09:08:25;56.30;;;29.42;;
23470;SDS011;11908;50.806;4.424;2022-11-20T09:10:51;61.42;;;26.70;;
23470;SDS011;11908;50.806;4.424;2022-11-20T09:13:17;56.22;;;27.35;;
23470;SDS011;11908;50.806;4.424;2022-11-20T09:15:44;52.28;;;26.75;;
23470;SDS011;11908;50.806;4.424;2022-11-20T09:18:09;64.35;;;27.77;;
23470;SDS011;11908;50.806;4.424;2022-11-20T09:20:35;48.92;;;26.08;;
23470;SDS011;11908;50.806;4.424;2022-11-20T09:23:01;46.85;;;24.95;;
23470;SDS011;11908;50.806;4.424;2022-11-20T09:25:26;50.33;;;25.83;;
23470;SDS011;11908;50.806;4.424;2022-11-20T09:27:58;52.45;;;24.05;;
23470;SDS011;11908;50.806;4.424;2022-11-20T09:30:25;48.00;;;25.73;;
23470;SDS011;11908;50.806;4.424;2022-11-20T09:32:52;45.67;;;24.33;;
23470;SDS011;11908;50.806;4.424;2022-11-20T09:35:18;38.47;;;21.42;;
23470;SDS011;11908;50.806;4.424;2022-11-20T09:37:44;41.63;;;21.40;;
23470;SDS011;11908;50.806;4.424;2022-11-20T09:40:20;38.25;;;20.75;;
23470;SDS011;11908;50.806;4.424;2022-11-20T09:43:10;37.38;;;21.17;;
23470;SDS011;11908;50.806;4.424;2022-11-20T09:53:56;32.28;;;17.85;;
23470;SDS011;11908;50.806;4.424;2022-11-20T09:56:56;28.38;;;16.20;;
23470;SDS011;11908;50.806;4.424;2022-11-20T09:59:48;28.33;;;16.05;;
23470;SDS011;11908;50.806;4.424;2022-11-20T10:05:23;26.80;;;15.48;;
23470;SDS011;11908;50.806;4.424;2022-11-20T10:10:42;31.75;;;16.80;;
23470;SDS011;11908;50.806;4.424;2022-11-20T10:13:12;26.70;;;14.25;;
23470;SDS011;11908;50.806;4.424;2022-11-20T10:18:53;28.00;;;11.88;;
23470;SDS011;11908;50.806;4.424;2022-11-20T10:21:30;23.23;;;10.57;;
23470;SDS011;11908;50.806;4.424;2022-11-20T10:24:17;22.00;;;10.88;;
23470;SDS011;11908;50.806;4.424;2022-11-20T10:27:04;18.50;;;10.43;;
23470;SDS011;11908;50.806;4.424;2022-11-20T10:29:38;18.00;;;10.23;;
23470;SDS011;11908;50.806;4.424;2022-11-20T10:32:16;15.02;;;8.98;;
23470;SDS011;11908;50.806;4.424;2022-11-20T10:34:54;14.07;;;8.13;;
23470;SDS011;11908;50.806;4.424;2022-11-20T10:37:26;14.95;;;7.95;;
23470;SDS011;11908;50.806;4.424;2022-11-20T10:39:56;13.02;;;6.38;;
23470;SDS011;11908;50.806;4.424;2022-11-20T10:42:36;14.73;;;6.45;;
23470;SDS011;11908;50.806;4.424;2022-11-20T10:45:21;9.95;;;6.25;;
23470;SDS011;11908;50.806;4.424;2022-11-20T10:48:01;10.25;;;4.65;;
23470;SDS011;11908;50.806;4.424;2022-11-20T10:50:36;12.50;;;5.20;;
23470;SDS011;11908;50.806;4.424;2022-11-20T10:53:16;12.70;;;5.30;;
23470;SDS011;11908;50.806;4.424;2022-11-20T11:01:44;7.90;;;4.00;;
23470;SDS011;11908;50.806;4.424;2022-11-20T11:04:21;9.48;;;3.80;;
23470;SDS011;11908;50.806;4.424;2022-11-20T11:06:58;10.50;;;3.47;;
23470;SDS011;11908;50.806;4.424;2022-11-20T11:09:38;10.85;;;3.17;;
23470;SDS011;11908;50.806;4.424;2022-11-20T11:12:08;7.22;;;3.90;;
23470;SDS011;11908;50.806;4.424;2022-11-20T11:14:41;9.80;;;3.70;;
23470;SDS011;11908;50.806;4.424;2022-11-20T11:17:18;5.53;;;3.00;;
23470;SDS011;11908;50.806;4.424;2022-11-20T11:20:04;9.45;;;3.63;;
23470;SDS011;11908;50.806;4.424;2022-11-20T11:22:46;12.73;;;3.22;;
23470;SDS011;11908;50.806;4.424;2022-11-20T11:25:33;7.80;;;3.00;;
23470;SDS011;11908;50.806;4.424;2022-11-20T11:28:05;7.82;;;3.50;;
23470;SDS011;11908;50.806;4.424;2022-11-20T11:30:44;6.82;;;2.90;;
23470;SDS011;11908;50.806;4.424;2022-11-20T11:33:31;6.78;;;2.95;;
23470;SDS011;11908;50.806;4.424;2022-11-20T11:36:04;14.27;;;3.42;;
23470;SDS011;11908;50.806;4.424;2022-11-20T11:38:41;9.23;;;3.00;;
23470;SDS011;11908;50.806;4.424;2022-11-20T11:41:28;8.88;;;3.03;;
23470;SDS011;11908;50.806;4.424;2022-11-20T11:44:46;7.03;;;3.05;;
23470;SDS011;11908;50.806;4.424;2022-11-20T11:47:11;6.68;;;2.72;;
23470;SDS011;11908;50.806;4.424;2022-11-20T11:49:48;9.77;;;3.97;;
23470;SDS011;11908;50.806;4.424;2022-11-20T11:52:25;5.97;;;3.45;;
23470;SDS011;11908;50.806;4.424;2022-11-20T11:54:58;6.30;;;2.83;;
23470;SDS011;11908;50.806;4.424;2022-11-20T11:57:29;10.90;;;3.30;;
23470;SDS011;11908;50.806;4.424;2022-11-20T12:00:06;8.73;;;2.90;;
23470;SDS011;11908;50.806;4.424;2022-11-20T12:05:24;7.25;;;2.70;;
23470;SDS011;11908;50.806;4.424;2022-11-20T12:08:03;8.40;;;3.00;;
23470;SDS011;11908;50.806;4.424;2022-11-20T12:16:04;8.63;;;3.47;;
23470;SDS011;11908;50.806;4.424;2022-11-20T12:18:34;9.52;;;3.63;;
23470;SDS011;11908;50.806;4.424;2022-11-20T12:23:44;8.70;;;3.20;;
23470;SDS011;11908;50.806;4.424;2022-11-20T12:40:09;14.20;;;3.83;;
23470;SDS011;11908;50.806;4.424;2022-11-20T12:42:49;10.25;;;4.03;;
23470;SDS011;11908;50.806;4.424;2022-11-20T12:48:27;9.93;;;4.22;;
23470;SDS011;11908;50.806;4.424;2022-11-20T12:56:43;11.77;;;5.28;;
23470;SDS011;11908;50.806;4.424;2022-11-20T13:05:19;11.48;;;4.03;;
23470;SDS011;11908;50.806;4.424;2022-11-20T13:07:52;9.80;;;3.72;;
23470;SDS011;11908;50.806;4.424;2022-11-20T13:10:21;10.40;;;4.82;;
23470;SDS011;11908;50.806;4.424;2022-11-20T13:13:03;13.80;;;6.68;;
23470;SDS011;11908;50.806;4.424;2022-11-20T13:15:51;14.45;;;9.70;;
23470;SDS011;11908;50.806;4.424;2022-11-20T13:18:21;12.25;;;7.32;;
23470;SDS011;11908;50.806;4.424;2022-11-20T13:20:47;15.98;;;7.40;;
23470;SDS011;11908;50.806;4.424;2022-11-20T13:23:24;15.52;;;7.20;;
23470;SDS011;11908;50.806;4.424;2022-11-20T13:26:02;11.57;;;5.63;;
23470;SDS011;11908;50.806;4.424;2022-11-20T13:28:38;7.60;;;5.00;;
23470;SDS011;11908;50.806;4.424;2022-11-20T13:31:09;8.20;;;4.78;;
23470;SDS011;11908;50.806;4.424;2022-11-20T13:33:53;8.85;;;4.75;;
23470;SDS011;11908;50.806;4.424;2022-11-20T13:36:24;8.73;;;4.78;;
23470;SDS011;11908;50.806;4.424;2022-11-20T13:38:52;7.85;;;4.18;;
23470;SDS011;11908;50.806;4.424;2022-11-20T13:41:23;8.57;;;5.55;;
23470;SDS011;11908;50.806;4.424;2022-11-20T13:46:58;5.57;;;3.67;;
23470;SDS011;11908;50.806;4.424;2022-11-20T13:49:29;8.38;;;4.90;;
23470;SDS011;11908;50.806;4.424;2022-11-20T14:03:47;5.15;;;3.58;;
23470;SDS011;11908;50.806;4.424;2022-11-20T14:06:47;5.10;;;3.85;;
23470;SDS011;11908;50.806;4.424;2022-11-20T14:09:10;4.77;;;3.10;;
23470;SDS011;11908;50.806;4.424;2022-11-20T14:11:45;7.80;;;3.45;;
23470;SDS011;11908;50.806;4.424;2022-11-20T14:14:17;5.65;;;3.58;;
23470;SDS011;11908;50.806;4.424;2022-11-20T14:16:44;7.05;;;3.92;;
23470;SDS011;11908;50.806;4.424;2022-11-20T14:19:23;6.45;;;3.90;;
23470;SDS011;11908;50.806;4.424;2022-11-20T14:22:06;4.05;;;3.22;;
23470;SDS011;11908;50.806;4.424;2022-11-20T14:24:35;7.03;;;3.42;;
23470;SDS011;11908;50.806;4.424;2022-11-20T14:27:00;6.65;;;3.95;;
23470;SDS011;11908;50.806;4.424;2022-11-20T14:29:28;5.85;;;4.32;;
23470;SDS011;11908;50.806;4.424;2022-11-20T14:32:01;4.57;;;3.00;;
23470;SDS011;11908;50.806;4.424;2022-11-20T14:34:29;7.03;;;2.85;;
23470;SDS011;11908;50.806;4.424;2022-11-20T14:37:01;3.92;;;2.83;;
23470;SDS011;11908;50.806;4.424;2022-11-20T14:39:30;5.22;;;3.47;;
23470;SDS011;11908;50.806;4.424;2022-11-20T14:42:01;7.50;;;5.40;;
23470;SDS011;11908;50.806;4.424;2022-11-20T14:44:31;7.30;;;3.95;;
23470;SDS011;11908;50.806;4.424;2022-11-20T14:46:59;6.68;;;4.10;;
23470;SDS011;11908;50.806;4.424;2022-11-20T14:49:28;6.93;;;4.35;;
23470;SDS011;11908;50.806;4.424;2022-11-20T14:51:59;7.47;;;3.70;;
23470;SDS011;11908;50.806;4.424;2022-11-20T14:54:26;5.75;;;4.28;;
23470;SDS011;11908;50.806;4.424;2022-11-20T14:56:53;6.40;;;5.10;;
23470;SDS011;11908;50.806;4.424;2022-11-20T14:59:27;6.07;;;4.28;;
23470;SDS011;11908;50.806;4.424;2022-11-20T15:01:58;5.78;;;4.10;;
23470;SDS011;11908;50.806;4.424;2022-11-20T15:04:43;11.02;;;4.72;;
23470;SDS011;11908;50.806;4.424;2022-11-20T15:07:10;8.77;;;3.80;;
23470;SDS011;11908;50.806;4.424;2022-11-20T15:09:36;5.95;;;4.80;;
23470;SDS011;11908;50.806;4.424;2022-11-20T15:12:02;8.73;;;4.43;;
23470;SDS011;11908;50.806;4.424;2022-11-20T15:14:28;6.97;;;4.10;;
23470;SDS011;11908;50.806;4.424;2022-11-20T15:16:56;5.40;;;3.50;;
23470;SDS011;11908;50.806;4.424;2022-11-20T15:19:22;6.40;;;3.80;;
23470;SDS011;11908;50.806;4.424;2022-11-20T15:21:50;6.55;;;3.90;;
23470;SDS011;11908;50.806;4.424;2022-11-20T15:24:16;8.63;;;4.05;;
23470;SDS011;11908;50.806;4.424;2022-11-20T15:26:41;6.70;;;4.15;;
23470;SDS011;11908;50.806;4.424;2022-11-20T15:29:09;7.22;;;4.68;;
23470;SDS011;11908;50.806;4.424;2022-11-20T15:31:36;7.43;;;5.00;;
23470;SDS011;11908;50.806;4.424;2022-11-20T15:34:02;7.47;;;4.57;;
23470;SDS011;11908;50.806;4.424;2022-11-20T15:36:31;11.43;;;4.50;;
23470;SDS011;11908;50.806;4.424;2022-11-20T15:38:56;7.82;;;4.90;;
23470;SDS011;11908;50.806;4.424;2022-11-20T15:41:22;10.98;;;5.30;;
23470;SDS011;11908;50.806;4.424;2022-11-20T15:43:48;8.07;;;5.40;;
23470;SDS011;11908;50.806;4.424;2022-11-20T15:46:15;7.43;;;4.22;;
23470;SDS011;11908;50.806;4.424;2022-11-20T15:48:44;14.50;;;4.53;;
23470;SDS011;11908;50.806;4.424;2022-11-20T15:53:42;12.95;;;5.07;;
23470;SDS011;11908;50.806;4.424;2022-11-20T15:56:09;8.45;;;4.25;;
23470;SDS011;11908;50.806;4.424;2022-11-20T15:58:36;9.60;;;5.35;;
23470;SDS011;11908;50.806;4.424;2022-11-20T16:01:02;11.25;;;5.20;;
23470;SDS011;11908;50.806;4.424;2022-11-20T16:03:28;9.10;;;5.05;;
23470;SDS011;11908;50.806;4.424;2022-11-20T16:05:53;18.25;;;4.93;;